createdAt,value
2022-10-26T00:00:08.086Z,12.8
2022-10-26T00:05:14.208Z,12.8
2022-10-26T00:10:20.290Z,12.5
2022-10-26T00:15:26.382Z,12.5
2022-10-26T00:20:32.473Z,12.8
2022-10-26T00:25:38.580Z,12.5
2022-10-26T00:30:43.686Z,12.5
2022-10-26T00:35:49.813Z,12.5
2022-10-26T00:40:55.908Z,13.1
2022-10-26T00:46:02.022Z,12.5
2022-10-26T00:51:08.092Z,12.8
2022-10-26T00:56:14.174Z,12.8
2022-10-26T01:01:20.313Z,12.5
2022-10-26T01:06:26.370Z,12.1
2022-10-26T01:11:32.461Z,12.5
2022-10-26T01:16:38.566Z,12.5
2022-10-26T01:21:44.666Z,12.5
2022-10-26T01:26:50.751Z,12.5
2022-10-26T01:31:56.858Z,12.5
2022-10-26T01:37:01.974Z,12.5
2022-10-26T01:42:08.063Z,12.5
2022-10-26T01:47:14.168Z,12.5
2022-10-26T01:52:20.268Z,12.5
2022-10-26T01:57:26.364Z,12.1
2022-10-26T02:02:32.462Z,12.1
2022-10-26T02:07:38.583Z,12.5
2022-10-26T02:12:44.636Z,12.1
2022-10-26T02:17:50.746Z,12.5
2022-10-26T02:22:56.891Z,12.5
2022-10-26T02:28:02.953Z,12.1
2022-10-26T02:33:09.069Z,12.1
2022-10-26T02:38:15.125Z,12.5
2022-10-26T02:43:20.249Z,12.1
2022-10-26T02:48:26.341Z,12.1
2022-10-26T02:53:32.433Z,12.1
2022-10-26T02:58:38.553Z,12.1
2022-10-26T03:03:44.639Z,11.8
2022-10-26T03:08:50.738Z,12.1
2022-10-26T03:13:56.829Z,12.1
2022-10-26T03:19:02.942Z,12.5
2022-10-26T03:24:09.029Z,11.8
2022-10-26T03:29:15.112Z,11.8
2022-10-26T03:34:21.223Z,12.1
2022-10-26T03:39:27.323Z,12.1
2022-10-26T03:44:33.414Z,11.8
2022-10-26T03:49:38.531Z,12.1
2022-10-26T03:54:44.633Z,11.5
2022-10-26T03:59:50.712Z,12.1
2022-10-26T04:04:56.827Z,11.8
2022-10-26T04:10:02.911Z,11.8
2022-10-26T04:15:09.011Z,12.1
2022-10-26T04:20:15.189Z,11.8
2022-10-26T04:25:21.229Z,12.1
2022-10-26T04:30:27.309Z,11.8
2022-10-26T04:35:33.436Z,11.8
2022-10-26T04:40:39.539Z,11.8
2022-10-26T04:45:45.630Z,11.8
2022-10-26T04:50:51.703Z,12.1
2022-10-26T04:55:56.842Z,12.1
2022-10-26T05:01:02.912Z,12.5
2022-10-26T05:06:09.030Z,11.8
2022-10-26T05:11:15.117Z,11.8
2022-10-26T05:16:21.194Z,11.8
2022-10-26T05:21:27.313Z,11.8
2022-10-26T05:26:33.387Z,11.8
2022-10-26T05:31:39.511Z,11.8
2022-10-26T05:36:45.607Z,11.5
2022-10-26T05:41:51.698Z,11.8
2022-10-26T05:46:57.790Z,11.8
2022-10-26T05:52:03.892Z,11.5
2022-10-26T05:57:09.981Z,11.8
2022-10-26T06:02:15.146Z,11.8
2022-10-26T06:07:21.185Z,11.8
2022-10-26T06:12:27.286Z,11.8
2022-10-26T06:17:33.412Z,12.1
2022-10-26T06:22:39.529Z,11.8
2022-10-26T06:27:45.589Z,11.5
2022-10-26T06:32:51.739Z,11.8
2022-10-26T06:37:57.787Z,11.5
2022-10-26T06:43:03.870Z,11.8
2022-10-26T06:48:09.960Z,11.5
2022-10-26T06:53:16.080Z,11.5
2022-10-26T06:58:22.170Z,11.5
2022-10-26T07:03:28.278Z,11.5
2022-10-26T07:08:33.378Z,11.8
2022-10-26T07:13:39.475Z,11.5
2022-10-26T07:18:45.683Z,11.8
2022-10-26T07:23:51.667Z,11.8
2022-10-26T07:28:57.765Z,11.8
2022-10-26T07:34:03.856Z,12.1
2022-10-26T07:39:09.964Z,11.5
2022-10-26T07:44:16.060Z,11.2
2022-10-26T07:49:22.145Z,11.8
2022-10-26T07:54:28.245Z,11.5
2022-10-26T07:59:34.385Z,11.5
2022-10-26T08:04:40.464Z,11.5
2022-10-26T08:09:46.546Z,11.5
2022-10-26T08:14:51.645Z,11.8
2022-10-26T08:19:57.742Z,12.5
2022-10-26T08:25:03.872Z,11.5
2022-10-26T08:30:09.945Z,11.5
2022-10-26T08:35:16.053Z,11.5
2022-10-26T08:40:22.133Z,11.5
2022-10-26T08:45:28.297Z,11.8
2022-10-26T08:50:34.338Z,12.1
2022-10-26T08:55:40.419Z,11.8
2022-10-26T09:00:46.522Z,12.1
2022-10-26T09:05:52.613Z,11.8
2022-10-26T09:10:58.751Z,11.8
2022-10-26T09:16:04.915Z,12.1
2022-10-26T09:21:09.952Z,12.1
2022-10-26T09:26:16.097Z,12.1
2022-10-26T09:31:22.184Z,12.5
2022-10-26T09:36:28.211Z,13.1
2022-10-26T09:41:34.313Z,11.8
2022-10-26T09:46:40.401Z,12.5
2022-10-26T09:51:46.633Z,12.5
2022-10-26T09:56:52.585Z,12.1
2022-10-26T10:01:58.738Z,12.1
2022-10-26T10:07:04.780Z,13.1
2022-10-26T10:12:10.871Z,12.1
2022-10-26T10:17:16.975Z,12.1
2022-10-26T10:22:23.055Z,12.8
2022-10-26T10:27:28.207Z,12.5
2022-10-26T10:32:34.279Z,13.1
2022-10-26T10:37:40.383Z,12.5
2022-10-26T10:42:46.460Z,12.8
2022-10-26T10:47:52.555Z,12.8
2022-10-26T10:52:58.645Z,13.8
2022-10-26T10:58:04.783Z,12.8
2022-10-26T11:03:10.892Z,13.1
2022-10-26T11:08:16.984Z,13.1
2022-10-26T11:13:23.017Z,13.4
2022-10-26T11:18:29.136Z,12.8
2022-10-26T11:23:35.220Z,13.1
2022-10-26T11:28:41.324Z,13.1
2022-10-26T11:33:46.436Z,12.8
2022-10-26T11:38:52.606Z,13.1
2022-10-26T11:43:58.634Z,13.4
2022-10-26T11:49:04.773Z,14.1
2022-10-26T11:54:10.832Z,13.4
2022-10-26T11:59:16.921Z,13.1
2022-10-26T12:04:23.018Z,13.1
2022-10-26T12:09:29.094Z,13.4
2022-10-26T12:14:35.181Z,13.4
2022-10-26T12:19:41.279Z,13.4
2022-10-26T12:24:47.384Z,13.8
2022-10-26T12:29:53.518Z,13.4
2022-10-26T12:34:59.561Z,13.8
2022-10-26T12:40:04.764Z,13.4
2022-10-26T12:45:10.770Z,13.4
2022-10-26T12:50:16.852Z,13.8
2022-10-26T12:55:22.958Z,14.1
2022-10-26T13:00:29.058Z,13.4
2022-10-26T13:05:35.162Z,14.1
2022-10-26T13:10:41.246Z,13.8
2022-10-26T13:15:47.370Z,13.8
2022-10-26T13:20:53.434Z,13.8
2022-10-26T13:25:59.564Z,14.4
2022-10-26T13:31:05.638Z,13.4
2022-10-26T13:36:11.737Z,13.8
2022-10-26T13:41:17.836Z,13.4
2022-10-26T13:46:22.926Z,14.1
2022-10-26T13:51:29.068Z,13.4
2022-10-26T13:56:35.120Z,14.1
2022-10-26T14:01:41.243Z,14.1
2022-10-26T14:06:47.306Z,14.4
2022-10-26T14:11:53.442Z,13.8
2022-10-26T14:16:59.495Z,14.1
2022-10-26T14:22:05.630Z,13.8
2022-10-26T14:27:11.760Z,13.8
2022-10-26T14:32:17.846Z,14.1
2022-10-26T14:37:23.883Z,14.1
2022-10-26T14:42:29.981Z,14.1
2022-10-26T14:47:36.071Z,14.4
2022-10-26T14:52:41.172Z,13.8
2022-10-26T14:57:47.281Z,14.1
2022-10-26T15:02:53.358Z,14.7
2022-10-26T15:07:59.493Z,13.8
2022-10-26T15:13:05.569Z,14.1
2022-10-26T15:18:11.653Z,13.8
2022-10-26T15:23:17.744Z,14.1
2022-10-26T15:28:23.903Z,14.4
2022-10-26T15:33:29.945Z,14.1
2022-10-26T15:38:36.092Z,14.4
2022-10-26T15:43:42.166Z,14.4
2022-10-26T15:48:48.213Z,14.4
2022-10-26T15:53:54.352Z,14.4
2022-10-26T15:58:59.434Z,13.8
2022-10-26T16:04:05.546Z,14.7
2022-10-26T16:09:11.623Z,14.1
2022-10-26T16:14:17.742Z,14.7
2022-10-26T16:19:23.813Z,14.1
2022-10-26T16:24:29.910Z,13.8
2022-10-26T16:29:35.025Z,14.4
2022-10-26T16:34:41.143Z,14.1
2022-10-26T16:39:47.229Z,13.8
2022-10-26T16:44:53.321Z,14.1
2022-10-26T16:49:59.435Z,14.1
2022-10-26T16:55:05.517Z,15
2022-10-26T17:00:11.614Z,14.1
2022-10-26T17:05:17.709Z,14.1
2022-10-26T17:10:23.808Z,13.8
2022-10-26T17:15:29.907Z,13.8
2022-10-26T17:20:36.004Z,13.8
2022-10-26T17:25:42.268Z,13.8
2022-10-26T17:30:48.350Z,14.4
2022-10-26T17:35:53.448Z,14.1
2022-10-26T17:40:59.551Z,13.8
2022-10-26T17:46:05.601Z,13.8
2022-10-26T17:51:11.609Z,13.8
2022-10-26T17:56:17.812Z,14.1
2022-10-26T18:01:23.931Z,13.8
2022-10-26T18:06:30.040Z,13.4
2022-10-26T18:11:36.082Z,13.8
2022-10-26T18:16:42.112Z,13.8
2022-10-26T18:21:48.183Z,13.8
2022-10-26T18:26:54.270Z,13.8
2022-10-26T18:32:00.512Z,13.4
2022-10-26T18:37:06.509Z,14.4
2022-10-26T18:42:11.744Z,13.4
2022-10-26T18:47:17.758Z,13.4
2022-10-26T18:52:23.800Z,13.8
2022-10-26T18:57:29.868Z,13.8
2022-10-26T19:02:35.960Z,13.4
2022-10-26T19:07:42.069Z,13.8
2022-10-26T19:12:48.284Z,13.4
2022-10-26T19:17:54.398Z,13.4
2022-10-26T19:23:00.356Z,13.8
2022-10-26T19:28:06.445Z,13.4
2022-10-26T19:33:12.566Z,14.1
2022-10-26T19:38:18.649Z,13.4
2022-10-26T19:43:24.744Z,13.8
2022-10-26T19:48:29.868Z,13.4
2022-10-26T19:53:35.949Z,13.8
2022-10-26T19:58:42.045Z,13.1
2022-10-26T20:03:48.148Z,13.4
2022-10-26T20:08:54.237Z,13.4
2022-10-26T20:14:00.347Z,13.4
2022-10-26T20:19:06.431Z,13.8
2022-10-26T20:24:12.536Z,13.4
2022-10-26T20:29:18.620Z,13.4
2022-10-26T20:34:24.732Z,13.8
2022-10-26T20:39:30.825Z,13.4
2022-10-26T20:44:36.937Z,13.4
2022-10-26T20:49:43.014Z,13.1
2022-10-26T20:54:48.116Z,13.8
2022-10-26T20:59:54.235Z,13.1
2022-10-26T21:05:00.310Z,13.4
2022-10-26T21:10:06.420Z,13.1
2022-10-26T21:15:12.514Z,13.1
2022-10-26T21:20:18.613Z,13.4
2022-10-26T21:25:24.713Z,13.1
2022-10-26T21:30:30.790Z,13.1
2022-10-26T21:35:36.905Z,13.1
2022-10-26T21:40:43.009Z,13.1
2022-10-26T21:45:49.098Z,13.1
2022-10-26T21:50:55.205Z,13.1
2022-10-26T21:56:01.282Z,13.1
2022-10-26T22:01:06.404Z,12.8
2022-10-26T22:06:12.491Z,12.8
2022-10-26T22:11:18.605Z,12.8
2022-10-26T22:16:24.683Z,12.8
2022-10-26T22:21:30.794Z,12.8
2022-10-26T22:26:36.890Z,13.1
2022-10-26T22:31:42.988Z,13.4
2022-10-26T22:36:49.072Z,12.8
2022-10-26T22:41:55.179Z,13.4
2022-10-26T22:47:01.269Z,13.1
2022-10-26T22:52:07.363Z,13.1
2022-10-26T22:57:13.466Z,13.1
2022-10-26T23:02:19.557Z,13.1
2022-10-26T23:07:24.670Z,12.8
2022-10-26T23:12:30.761Z,13.1
2022-10-26T23:17:36.869Z,12.8
2022-10-26T23:22:42.953Z,13.1
2022-10-26T23:27:49.069Z,12.8
2022-10-26T23:32:55.163Z,12.8
2022-10-26T23:38:01.257Z,12.8
2022-10-26T23:43:07.348Z,12.8
2022-10-26T23:48:13.441Z,12.8
2022-10-26T23:53:19.532Z,13.1
2022-10-26T23:58:25.645Z,12.1
